createdAt,value
2022-07-25T00:00:58.493Z,0.00
2022-07-25T00:01:58.554Z,0.00
2022-07-25T00:02:58.447Z,0.00
2022-07-25T00:03:58.483Z,0.00
2022-07-25T00:04:58.444Z,0.00
2022-07-25T00:05:58.381Z,0.00
2022-07-25T00:06:58.355Z,0.00
2022-07-25T00:07:58.331Z,0.00
2022-07-25T00:08:58.307Z,0.00
2022-07-25T00:09:58.285Z,0.00
2022-07-25T00:10:58.262Z,0.00
2022-07-25T00:11:58.241Z,0.00
2022-07-25T00:12:58.219Z,0.00
2022-07-25T00:13:58.193Z,0.00
2022-07-25T00:14:58.171Z,0.00
2022-07-25T00:15:58.162Z,0.00
2022-07-25T00:16:58.124Z,0.00
2022-07-25T00:17:58.102Z,0.00
2022-07-25T00:18:58.077Z,0.00
2022-07-25T00:19:58.054Z,0.00
2022-07-25T00:20:58.035Z,0.00
2022-07-25T00:21:58.013Z,0.00
2022-07-25T00:22:57.982Z,0.00
2022-07-25T00:23:57.964Z,0.00
2022-07-25T00:24:57.938Z,0.00
2022-07-25T00:25:57.913Z,0.00
2022-07-25T00:26:57.898Z,0.00
2022-07-25T00:27:57.869Z,0.00
2022-07-25T00:28:57.845Z,0.00
2022-07-25T00:29:57.824Z,0.00
2022-07-25T00:30:57.864Z,0.00
2022-07-25T00:31:57.774Z,0.00
2022-07-25T00:32:57.752Z,0.00
2022-07-25T00:33:57.729Z,0.00
2022-07-25T00:34:57.705Z,0.00
2022-07-25T00:35:57.682Z,0.00
2022-07-25T00:36:57.659Z,0.00
2022-07-25T00:37:57.635Z,0.00
2022-07-25T00:38:57.612Z,0.00
2022-07-25T00:39:57.586Z,0.00
2022-07-25T00:40:57.566Z,0.00
2022-07-25T00:41:57.541Z,0.00
2022-07-25T00:42:57.517Z,0.00
2022-07-25T00:43:57.494Z,0.00
2022-07-25T00:44:57.484Z,0.00
2022-07-25T00:45:57.540Z,0.00
2022-07-25T00:46:57.506Z,0.00
2022-07-25T00:47:57.409Z,0.00
2022-07-25T00:48:57.428Z,0.00
2022-07-25T00:49:57.354Z,0.00
2022-07-25T00:50:57.334Z,0.00
2022-07-25T00:51:57.304Z,0.00
2022-07-25T00:52:57.283Z,0.00
2022-07-25T00:53:57.277Z,0.00
2022-07-25T00:54:57.244Z,0.00
2022-07-25T00:55:57.212Z,0.00
2022-07-25T00:56:57.188Z,0.00
2022-07-25T00:57:57.164Z,0.00
2022-07-25T00:58:57.144Z,0.00
2022-07-25T00:59:57.117Z,0.00
2022-07-25T01:00:57.097Z,0.00
2022-07-25T01:01:57.181Z,0.00
2022-07-25T01:02:57.196Z,0.00
2022-07-25T01:03:57.019Z,0.00
2022-07-25T01:04:56.997Z,0.00
2022-07-25T01:05:56.971Z,0.00
2022-07-25T01:06:56.946Z,0.00
2022-07-25T01:07:56.924Z,0.00
2022-07-25T01:08:56.901Z,0.00
2022-07-25T01:09:56.876Z,0.00
2022-07-25T01:10:56.852Z,0.00
2022-07-25T01:11:56.833Z,0.00
2022-07-25T01:12:56.804Z,0.00
2022-07-25T01:13:56.785Z,0.00
2022-07-25T01:14:56.756Z,0.00
2022-07-25T01:15:56.786Z,0.00
2022-07-25T01:16:56.711Z,0.00
2022-07-25T01:17:56.688Z,0.00
2022-07-25T01:18:56.662Z,0.00
2022-07-25T01:19:56.641Z,0.00
2022-07-25T01:20:56.616Z,0.00
2022-07-25T01:21:56.596Z,0.00
2022-07-25T01:22:56.572Z,0.00
2022-07-25T01:23:56.544Z,0.00
2022-07-25T01:24:56.520Z,0.00
2022-07-25T01:25:56.496Z,0.00
2022-07-25T01:26:56.471Z,0.00
2022-07-25T01:27:56.447Z,0.00
2022-07-25T01:28:56.425Z,0.00
2022-07-25T01:29:56.403Z,0.00
2022-07-25T01:30:56.402Z,0.00
2022-07-25T01:31:56.355Z,0.00
2022-07-25T01:32:56.332Z,0.00
2022-07-25T01:33:56.308Z,0.00
2022-07-25T01:34:56.282Z,0.00
2022-07-25T01:35:56.258Z,0.00
2022-07-25T01:36:56.234Z,0.00
2022-07-25T01:37:56.213Z,0.00
2022-07-25T01:38:56.190Z,0.00
2022-07-25T01:39:56.166Z,0.00
2022-07-25T01:40:56.142Z,0.00
2022-07-25T01:41:56.119Z,0.00
2022-07-25T01:42:56.093Z,0.00
2022-07-25T01:43:56.070Z,0.00
2022-07-25T01:44:56.054Z,0.00
2022-07-25T01:45:56.171Z,0.00
2022-07-25T01:46:55.998Z,0.00
2022-07-25T01:47:55.975Z,0.00
2022-07-25T01:48:56.056Z,0.00
2022-07-25T01:49:55.929Z,0.00
2022-07-25T01:50:55.907Z,0.00
2022-07-25T01:51:55.879Z,0.00
2022-07-25T01:52:55.853Z,0.00
2022-07-25T01:53:55.829Z,0.00
2022-07-25T01:54:55.808Z,0.00
2022-07-25T01:55:55.781Z,0.00
2022-07-25T01:56:55.761Z,0.00
2022-07-25T01:57:55.737Z,0.00
2022-07-25T01:58:55.718Z,0.00
2022-07-25T01:59:55.684Z,0.00
2022-07-25T02:00:55.663Z,0.00
2022-07-25T02:01:55.677Z,0.00
2022-07-25T02:02:55.616Z,0.00
2022-07-25T02:03:55.595Z,0.00
2022-07-25T02:04:55.659Z,0.00
2022-07-25T02:05:55.544Z,0.00
2022-07-25T02:06:55.522Z,0.00
2022-07-25T02:07:55.493Z,0.00
2022-07-25T02:08:55.475Z,0.00
2022-07-25T02:09:56.986Z,0.00
2022-07-25T02:10:55.425Z,0.00
2022-07-25T02:11:55.398Z,0.00
2022-07-25T02:12:55.375Z,0.00
2022-07-25T02:13:55.354Z,0.00
2022-07-25T02:14:55.330Z,0.00
2022-07-25T02:15:55.310Z,0.00
2022-07-25T02:16:55.361Z,0.00
2022-07-25T02:17:55.254Z,0.00
2022-07-25T02:18:55.231Z,0.00
2022-07-25T02:19:55.208Z,0.00
2022-07-25T02:20:55.185Z,0.00
2022-07-25T02:21:55.160Z,0.00
2022-07-25T02:22:55.135Z,0.00
2022-07-25T02:23:55.111Z,0.00
2022-07-25T02:24:55.086Z,0.00
2022-07-25T02:25:55.061Z,0.00
2022-07-25T02:26:55.038Z,0.00
2022-07-25T02:27:55.023Z,0.00
2022-07-25T02:28:54.993Z,0.00
2022-07-25T02:29:54.966Z,0.00
2022-07-25T02:30:54.979Z,0.00
2022-07-25T02:31:54.917Z,0.00
2022-07-25T02:32:54.905Z,0.00
2022-07-25T02:33:54.872Z,0.00
2022-07-25T02:34:54.843Z,0.00
2022-07-25T02:35:54.823Z,0.00
2022-07-25T02:36:54.800Z,0.00
2022-07-25T02:37:54.776Z,4.00
2022-07-25T02:38:54.751Z,4.00
2022-07-25T02:39:54.725Z,0.00
2022-07-25T02:40:54.703Z,0.00
2022-07-25T02:41:54.678Z,4.00
2022-07-25T02:42:54.653Z,4.00
2022-07-25T02:43:54.627Z,4.00
2022-07-25T02:44:54.602Z,4.00
2022-07-25T02:45:54.639Z,8.00
2022-07-25T02:46:54.553Z,4.00
2022-07-25T02:47:54.527Z,8.00
2022-07-25T02:48:54.606Z,8.00
2022-07-25T02:49:54.486Z,12.00
2022-07-25T02:50:54.460Z,12.00
2022-07-25T02:51:54.429Z,12.00
2022-07-25T02:52:54.406Z,12.00
2022-07-25T02:53:57.848Z,16.00
2022-07-25T02:54:54.357Z,16.00
2022-07-25T02:55:54.334Z,20.00
2022-07-25T02:56:54.313Z,20.00
2022-07-25T02:57:54.285Z,28.00
2022-07-25T02:58:54.260Z,32.00
2022-07-25T02:59:54.233Z,32.00
2022-07-25T03:00:54.274Z,40.00
2022-07-25T03:01:54.302Z,44.00
2022-07-25T03:02:54.166Z,48.00
2022-07-25T03:03:54.245Z,52.00
2022-07-25T03:04:54.114Z,60.00
2022-07-25T03:05:54.085Z,68.00
2022-07-25T03:06:54.067Z,76.00
2022-07-25T03:07:54.051Z,88.00
2022-07-25T03:08:54.011Z,96.00
2022-07-25T03:09:53.987Z,108.00
2022-07-25T03:10:53.965Z,116.00
2022-07-25T03:11:53.939Z,128.00
2022-07-25T03:12:53.916Z,140.00
2022-07-25T03:13:53.890Z,148.00
2022-07-25T03:14:53.867Z,160.00
2022-07-25T03:15:53.840Z,172.00
2022-07-25T03:16:53.930Z,188.00
2022-07-25T03:17:53.790Z,204.00
2022-07-25T03:18:53.764Z,220.00
2022-07-25T03:19:53.740Z,236.00
2022-07-25T03:20:53.725Z,248.00
2022-07-25T03:21:53.695Z,268.00
2022-07-25T03:22:53.674Z,288.00
2022-07-25T03:23:53.644Z,308.00
2022-07-25T03:24:53.623Z,328.00
2022-07-25T03:25:53.599Z,352.00
2022-07-25T03:26:53.569Z,380.00
2022-07-25T03:27:53.546Z,408.00
2022-07-25T03:28:53.519Z,436.00
2022-07-25T03:29:53.495Z,464.00
2022-07-25T03:30:53.483Z,496.00
2022-07-25T03:31:53.557Z,532.00
2022-07-25T03:32:53.421Z,564.00
2022-07-25T03:33:53.401Z,604.00
2022-07-25T03:34:53.371Z,636.00
2022-07-25T03:35:53.349Z,676.00
2022-07-25T03:36:53.324Z,704.00
2022-07-25T03:37:53.301Z,736.00
2022-07-25T03:38:53.274Z,768.00
2022-07-25T03:39:53.250Z,804.00
2022-07-25T03:40:53.226Z,852.00
2022-07-25T03:41:53.201Z,900.00
2022-07-25T03:42:53.175Z,964.00
2022-07-25T03:43:53.152Z,1028.00
2022-07-25T03:44:53.126Z,1092.00
2022-07-25T03:45:53.175Z,1156.00
2022-07-25T03:46:53.077Z,1208.00
2022-07-25T03:47:53.051Z,1264.00
2022-07-25T03:48:53.077Z,1320.00
2022-07-25T03:49:53.003Z,1368.00
2022-07-25T03:50:52.976Z,1428.00
2022-07-25T03:51:52.955Z,1528.00
2022-07-25T03:52:52.927Z,1656.00
2022-07-25T03:53:52.906Z,1788.00
2022-07-25T03:54:52.882Z,1852.00
2022-07-25T03:55:52.853Z,1864.00
2022-07-25T03:56:52.834Z,1820.00
2022-07-25T03:57:52.808Z,1844.00
2022-07-25T03:58:52.783Z,1824.00
2022-07-25T03:59:52.759Z,1764.00
2022-07-25T04:00:52.805Z,1744.00
2022-07-25T04:01:52.738Z,1760.00
2022-07-25T04:02:52.684Z,1804.00
2022-07-25T04:03:52.659Z,1852.00
2022-07-25T04:04:52.639Z,1904.00
2022-07-25T04:05:52.608Z,1948.00
2022-07-25T04:06:52.591Z,2008.00
2022-07-25T04:07:52.569Z,2052.00
2022-07-25T04:08:52.544Z,2100.00
2022-07-25T04:09:52.513Z,2140.00
2022-07-25T04:10:52.492Z,2192.00
2022-07-25T04:11:52.466Z,2232.00
2022-07-25T04:12:52.448Z,2268.00
2022-07-25T04:13:52.417Z,2304.00
2022-07-25T04:14:52.393Z,2328.00
2022-07-25T04:15:52.369Z,2360.00
2022-07-25T04:16:52.396Z,2416.00
2022-07-25T04:17:52.321Z,2452.00
2022-07-25T04:18:52.297Z,2496.00
2022-07-25T04:19:52.273Z,2532.00
2022-07-25T04:20:52.248Z,2568.00
2022-07-25T04:21:52.223Z,2608.00
2022-07-25T04:22:52.196Z,2648.00
2022-07-25T04:23:52.173Z,2700.00
2022-07-25T04:24:52.154Z,2756.00
2022-07-25T04:25:52.126Z,2804.00
2022-07-25T04:26:52.102Z,2836.00
2022-07-25T04:27:52.082Z,2860.00
2022-07-25T04:28:52.053Z,2900.00
2022-07-25T04:29:52.030Z,2936.00
2022-07-25T04:30:52.009Z,2984.00
2022-07-25T04:31:52.058Z,3032.00
2022-07-25T04:32:51.956Z,3076.00
2022-07-25T04:33:51.934Z,3128.00
2022-07-25T04:34:51.910Z,3164.00
2022-07-25T04:35:51.883Z,3216.00
2022-07-25T04:36:51.865Z,3312.00
2022-07-25T04:37:51.841Z,3336.00
2022-07-25T04:38:51.814Z,3300.00
2022-07-25T04:39:51.793Z,3336.00
2022-07-25T04:40:51.765Z,3376.00
2022-07-25T04:41:51.742Z,3396.00
2022-07-25T04:42:51.716Z,3392.00
2022-07-25T04:43:51.693Z,3420.00
2022-07-25T04:44:51.670Z,3468.00
2022-07-25T04:45:51.678Z,3532.00
2022-07-25T04:46:51.621Z,3588.00
2022-07-25T04:47:51.599Z,3768.00
2022-07-25T04:48:51.623Z,4144.00
2022-07-25T04:49:51.548Z,4444.00
2022-07-25T04:50:51.525Z,4100.00
2022-07-25T04:51:51.500Z,3884.00
2022-07-25T04:52:51.478Z,3964.00
2022-07-25T04:53:51.455Z,4068.00
2022-07-25T04:54:51.433Z,4048.00
2022-07-25T04:55:51.405Z,3956.00
2022-07-25T04:56:51.383Z,3920.00
2022-07-25T04:57:51.360Z,3968.00
2022-07-25T04:58:51.340Z,3972.00
2022-07-25T04:59:51.314Z,3992.00
2022-07-25T05:00:51.398Z,4060.00
2022-07-25T05:01:51.313Z,4148.00
2022-07-25T05:02:51.243Z,4296.00
2022-07-25T05:03:51.218Z,4428.00
2022-07-25T05:04:52.115Z,4660.00
2022-07-25T05:05:51.174Z,4448.00
2022-07-25T05:06:51.150Z,4252.00
2022-07-25T05:07:51.132Z,4260.00
2022-07-25T05:08:51.109Z,4348.00
2022-07-25T05:09:51.078Z,4452.00
2022-07-25T05:10:51.055Z,4412.00
2022-07-25T05:11:55.982Z,4360.00
2022-07-25T05:12:51.010Z,4396.00
2022-07-25T05:13:50.987Z,4424.00
2022-07-25T05:14:50.961Z,4440.00
2022-07-25T05:15:50.941Z,4472.00
2022-07-25T05:16:50.989Z,4516.00
2022-07-25T05:17:50.894Z,4704.00
2022-07-25T05:18:50.870Z,4888.00
2022-07-25T05:19:50.847Z,4768.00
2022-07-25T05:20:50.822Z,4624.00
2022-07-25T05:21:50.807Z,4684.00
2022-07-25T05:22:50.779Z,4716.00
2022-07-25T05:23:50.756Z,4716.00
2022-07-25T05:24:50.732Z,4748.00
2022-07-25T05:25:50.751Z,4772.00
2022-07-25T05:26:50.685Z,4828.00
2022-07-25T05:27:50.664Z,4928.00
2022-07-25T05:28:50.643Z,5108.00
2022-07-25T05:29:50.621Z,5140.00
2022-07-25T05:30:50.593Z,5036.00
2022-07-25T05:31:50.668Z,5000.00
2022-07-25T05:32:50.553Z,5056.00
2022-07-25T05:33:50.527Z,5136.00
2022-07-25T05:34:50.503Z,5268.00
2022-07-25T05:35:50.485Z,5312.00
2022-07-25T05:36:50.460Z,5416.00
2022-07-25T05:37:50.437Z,6192.00
2022-07-25T05:38:50.415Z,6120.00
2022-07-25T05:39:50.390Z,5784.00
2022-07-25T05:40:50.370Z,6228.00
2022-07-25T05:41:50.346Z,9148.00
2022-07-25T05:42:50.325Z,12436.00
2022-07-25T05:43:50.300Z,10608.00
2022-07-25T05:44:50.283Z,8636.00
2022-07-25T05:45:50.259Z,10392.00
2022-07-25T05:46:50.313Z,8112.00
2022-07-25T05:47:50.213Z,10736.00
2022-07-25T05:48:50.249Z,15584.00
2022-07-25T05:49:50.177Z,18848.00
2022-07-25T05:50:50.151Z,19200.00
2022-07-25T05:51:50.132Z,19360.00
2022-07-25T05:52:50.121Z,19616.00
2022-07-25T05:53:50.088Z,19776.00
2022-07-25T05:54:50.071Z,19968.00
2022-07-25T05:55:50.085Z,20192.00
2022-07-25T05:56:50.056Z,20256.00
2022-07-25T05:57:50.055Z,20512.00
2022-07-25T05:58:50.010Z,20800.00
2022-07-25T05:59:49.974Z,20896.00
2022-07-25T06:00:49.951Z,21120.00
2022-07-25T06:01:50.088Z,21280.00
2022-07-25T06:02:50.090Z,21440.00
2022-07-25T06:03:49.897Z,21696.00
2022-07-25T06:04:49.885Z,21824.00
2022-07-25T06:05:49.868Z,22048.00
2022-07-25T06:06:49.850Z,22336.00
2022-07-25T06:07:49.836Z,22496.00
2022-07-25T06:08:49.820Z,22688.00
2022-07-25T06:09:49.801Z,22976.00
2022-07-25T06:10:49.783Z,23168.00
2022-07-25T06:11:59.855Z,23424.00
2022-07-25T06:12:49.746Z,23648.00
2022-07-25T06:13:49.736Z,23840.00
2022-07-25T06:14:49.719Z,24032.00
2022-07-25T06:15:49.853Z,24224.00
2022-07-25T06:16:49.788Z,24512.00
2022-07-25T06:17:49.674Z,24608.00
2022-07-25T06:18:49.660Z,24768.00
2022-07-25T06:19:49.641Z,25024.00
2022-07-25T06:20:49.630Z,25376.00
2022-07-25T06:21:49.611Z,25536.00
2022-07-25T06:22:49.603Z,25600.00
2022-07-25T06:23:49.584Z,25856.00
2022-07-25T06:24:49.569Z,26016.00
2022-07-25T06:25:50.093Z,26176.00
2022-07-25T06:26:49.542Z,26464.00
2022-07-25T06:27:49.534Z,26592.00
2022-07-25T06:28:49.514Z,26848.00
2022-07-25T06:29:49.500Z,27136.00
2022-07-25T06:30:49.487Z,27328.00
2022-07-25T06:31:49.556Z,27616.00
2022-07-25T06:32:49.456Z,27840.00
2022-07-25T06:33:49.443Z,27968.00
2022-07-25T06:34:49.430Z,28256.00
2022-07-25T06:35:49.419Z,28544.00
2022-07-25T06:36:49.407Z,28736.00
2022-07-25T06:37:49.392Z,29088.00
2022-07-25T06:38:49.379Z,29312.00
2022-07-25T06:39:49.366Z,29536.00
2022-07-25T06:40:49.355Z,29824.00
2022-07-25T06:41:49.337Z,29984.00
2022-07-25T06:42:49.325Z,30368.00
2022-07-25T06:43:49.312Z,30624.00
2022-07-25T06:44:49.298Z,30848.00
2022-07-25T06:45:49.291Z,31104.00
2022-07-25T06:46:49.471Z,31072.00
2022-07-25T06:47:49.263Z,31520.00
2022-07-25T06:48:49.359Z,31680.00
2022-07-25T06:49:49.238Z,32032.00
2022-07-25T06:50:49.223Z,32224.00
2022-07-25T06:51:49.213Z,32480.00
2022-07-25T06:52:49.200Z,32576.00
2022-07-25T06:53:49.189Z,32704.00
2022-07-25T06:54:49.173Z,32992.00
2022-07-25T06:55:49.164Z,33088.00
2022-07-25T06:56:49.151Z,33344.00
2022-07-25T06:57:49.141Z,33632.00
2022-07-25T06:58:49.126Z,33760.00
2022-07-25T06:59:49.112Z,34176.00
2022-07-25T07:00:49.126Z,34208.00
2022-07-25T07:01:51.655Z,34560.00
2022-07-25T07:02:49.080Z,34784.00
2022-07-25T07:03:49.160Z,34944.00
2022-07-25T07:04:49.057Z,35168.00
2022-07-25T07:05:49.047Z,35424.00
2022-07-25T07:06:49.035Z,35520.00
2022-07-25T07:07:49.025Z,35776.00
2022-07-25T07:08:49.007Z,36320.00
2022-07-25T07:09:48.999Z,36672.00
2022-07-25T07:10:48.986Z,37024.00
2022-07-25T07:11:48.976Z,37120.00
2022-07-25T07:12:48.965Z,37280.00
2022-07-25T07:13:48.955Z,37504.00
2022-07-25T07:14:48.941Z,37760.00
2022-07-25T07:15:48.973Z,38016.00
2022-07-25T07:16:48.922Z,38624.00
2022-07-25T07:17:48.909Z,38816.00
2022-07-25T07:18:49.607Z,39264.00
2022-07-25T07:19:48.894Z,39648.00
2022-07-25T07:20:48.880Z,39936.00
2022-07-25T07:21:48.869Z,39936.00
2022-07-25T07:22:48.863Z,40064.00
2022-07-25T07:23:48.846Z,40480.00
2022-07-25T07:24:48.838Z,40800.00
2022-07-25T07:25:48.827Z,41280.00
2022-07-25T07:26:48.817Z,41792.00
2022-07-25T07:27:48.810Z,42272.00
2022-07-25T07:28:48.796Z,42432.00
2022-07-25T07:29:48.786Z,43040.00
2022-07-25T07:31:18.695Z,43520.00
2022-07-25T07:31:48.912Z,43744.00
2022-07-25T07:32:48.753Z,44064.00
2022-07-25T07:33:48.741Z,44480.00
2022-07-25T07:34:48.731Z,44704.00
2022-07-25T07:35:48.722Z,45216.00
2022-07-25T07:36:48.721Z,45504.00
2022-07-25T07:37:48.708Z,45344.00
2022-07-25T07:38:48.693Z,46400.00
2022-07-25T07:39:48.678Z,46784.00
2022-07-25T07:40:48.669Z,47424.00
2022-07-25T07:41:48.662Z,48448.00
2022-07-25T07:42:48.648Z,49184.00
2022-07-25T07:43:48.641Z,49376.00
2022-07-25T07:44:48.628Z,48736.00
2022-07-25T07:45:48.620Z,48832.00
2022-07-25T07:46:48.708Z,46912.00
2022-07-25T07:47:48.603Z,52384.00
2022-07-25T07:48:48.657Z,53088.00
2022-07-25T07:49:50.417Z,53856.00
2022-07-25T07:50:48.569Z,54272.00
2022-07-25T07:51:48.556Z,51936.00
2022-07-25T07:52:48.548Z,45728.00
2022-07-25T07:53:48.542Z,50016.00
2022-07-25T07:54:48.529Z,48864.00
2022-07-25T07:55:48.524Z,51136.00
2022-07-25T07:56:48.508Z,51360.00
2022-07-25T07:57:48.500Z,46304.00
2022-07-25T07:58:48.486Z,41792.00
2022-07-25T07:59:48.477Z,40096.00
2022-07-25T08:00:48.466Z,35072.00
2022-07-25T08:01:48.514Z,26176.00
2022-07-25T08:02:48.544Z,29280.00
2022-07-25T08:03:48.437Z,29440.00
2022-07-25T08:04:48.425Z,36064.00
2022-07-25T08:05:48.415Z,26880.00
2022-07-25T08:06:48.403Z,33696.00
2022-07-25T08:07:48.394Z,25664.00
2022-07-25T08:08:48.381Z,23616.00
2022-07-25T08:09:48.371Z,20928.00
2022-07-25T08:10:48.358Z,21024.00
2022-07-25T08:11:48.345Z,24256.00
2022-07-25T08:12:48.336Z,27456.00
2022-07-25T08:13:48.324Z,34400.00
2022-07-25T08:14:48.312Z,29728.00
2022-07-25T08:15:48.397Z,23936.00
2022-07-25T08:16:48.291Z,23136.00
2022-07-25T08:17:48.279Z,21504.00
2022-07-25T08:18:48.271Z,24992.00
2022-07-25T08:19:48.255Z,23264.00
2022-07-25T08:20:48.239Z,30176.00
2022-07-25T08:21:48.223Z,56224.00
2022-07-25T08:22:49.249Z,50240.00
2022-07-25T08:23:48.206Z,51488.00
2022-07-25T08:24:48.191Z,46208.00
2022-07-25T08:25:48.183Z,39872.00
2022-07-25T08:26:48.164Z,32416.00
2022-07-25T08:27:48.152Z,41184.00
2022-07-25T08:28:52.539Z,41920.00
2022-07-25T08:29:48.127Z,34368.00
2022-07-25T08:30:48.210Z,45120.00
2022-07-25T08:31:48.161Z,44416.00
2022-07-25T08:32:48.092Z,65344.00
2022-07-25T08:33:48.078Z,67520.00
2022-07-25T08:34:48.068Z,67840.00
2022-07-25T08:35:48.058Z,68320.00
2022-07-25T08:36:48.048Z,69568.00
2022-07-25T08:37:48.035Z,70400.00
2022-07-25T08:38:48.023Z,69888.00
2022-07-25T08:39:48.011Z,61952.00
2022-07-25T08:40:48.004Z,55104.00
2022-07-25T08:41:47.991Z,42240.00
2022-07-25T08:42:47.977Z,48864.00
2022-07-25T08:43:47.972Z,67616.00
2022-07-25T08:44:47.975Z,69344.00
2022-07-25T08:45:47.955Z,63008.00
2022-07-25T08:46:48.014Z,60576.00
2022-07-25T08:47:47.931Z,63680.00
2022-07-25T08:48:47.976Z,60320.00
2022-07-25T08:49:47.911Z,53472.00
2022-07-25T08:50:47.902Z,37440.00
2022-07-25T08:51:47.891Z,27936.00
2022-07-25T08:52:47.887Z,31904.00
2022-07-25T08:53:48.460Z,29248.00
2022-07-25T08:54:47.860Z,45856.00
2022-07-25T08:55:47.851Z,50080.00
2022-07-25T08:56:47.842Z,61504.00
2022-07-25T08:57:47.834Z,56096.00
2022-07-25T08:58:47.821Z,69440.00
2022-07-25T08:59:47.813Z,64992.00
2022-07-25T09:00:47.803Z,66784.00
2022-07-25T09:01:47.899Z,67136.00
2022-07-25T09:02:47.834Z,64800.00
2022-07-25T09:03:47.773Z,63552.00
2022-07-25T09:04:47.763Z,65888.00
2022-07-25T09:05:47.753Z,67456.00
2022-07-25T09:06:47.744Z,63232.00
2022-07-25T09:07:47.734Z,57664.00
2022-07-25T09:08:47.727Z,64864.00
2022-07-25T09:09:47.715Z,66400.00
2022-07-25T09:10:47.708Z,70560.00
2022-07-25T09:11:47.696Z,68512.00
2022-07-25T09:12:47.689Z,69216.00
2022-07-25T09:13:47.677Z,70688.00
2022-07-25T09:14:47.669Z,71616.00
2022-07-25T09:15:47.711Z,72352.00
2022-07-25T09:16:47.672Z,71424.00
2022-07-25T09:17:47.642Z,65248.00
2022-07-25T09:18:47.633Z,55136.00
2022-07-25T09:19:47.624Z,61760.00
2022-07-25T09:20:47.614Z,72096.00
2022-07-25T09:21:47.612Z,64768.00
2022-07-25T09:22:47.600Z,63456.00
2022-07-25T09:23:47.588Z,64320.00
2022-07-25T09:24:47.582Z,68448.00
2022-07-25T09:25:47.573Z,66368.00
2022-07-25T09:26:47.574Z,54016.00
2022-07-25T09:27:47.555Z,57408.00
2022-07-25T09:28:47.548Z,61632.00
2022-07-25T09:29:47.540Z,64800.00
2022-07-25T09:30:47.595Z,64480.00
2022-07-25T09:31:47.612Z,66688.00
2022-07-25T09:32:47.515Z,67712.00
2022-07-25T09:33:47.507Z,56832.00
2022-07-25T09:34:47.490Z,61216.00
2022-07-25T09:35:47.482Z,66592.00
2022-07-25T09:36:47.474Z,67072.00
2022-07-25T09:37:47.471Z,65376.00
2022-07-25T09:38:47.454Z,69952.00
2022-07-25T09:39:48.409Z,71392.00
2022-07-25T09:40:47.445Z,72608.00
2022-07-25T09:41:47.431Z,71264.00
2022-07-25T09:42:47.422Z,74368.00
2022-07-25T09:43:47.414Z,75552.00
2022-07-25T09:44:47.402Z,75104.00
2022-07-25T09:45:47.395Z,74016.00
2022-07-25T09:46:47.413Z,72960.00
2022-07-25T09:47:47.384Z,61184.00
2022-07-25T09:48:47.461Z,67168.00
2022-07-25T09:49:47.372Z,68608.00
2022-07-25T09:50:47.352Z,64256.00
2022-07-25T09:51:47.340Z,53408.00
2022-07-25T09:52:47.332Z,31008.00
2022-07-25T09:53:47.323Z,19936.00
2022-07-25T09:54:47.313Z,17984.00
2022-07-25T09:55:47.299Z,17440.00
2022-07-25T09:56:47.295Z,17312.00
2022-07-25T09:57:47.285Z,22112.00
2022-07-25T09:58:47.275Z,30176.00
2022-07-25T09:59:47.270Z,36480.00
2022-07-25T10:00:47.253Z,36928.00
2022-07-25T10:01:47.297Z,47232.00
2022-07-25T10:02:47.302Z,63456.00
2022-07-25T10:03:47.226Z,73152.00
2022-07-25T10:04:47.218Z,73408.00
2022-07-25T10:05:47.200Z,73888.00
2022-07-25T10:06:47.188Z,78048.00
2022-07-25T10:07:47.180Z,77344.00
2022-07-25T10:08:47.173Z,74432.00
2022-07-25T10:09:47.158Z,76416.00
2022-07-25T10:10:47.151Z,75520.00
2022-07-25T10:11:47.140Z,69024.00
2022-07-25T10:12:47.131Z,77088.00
2022-07-25T10:13:47.120Z,64128.00
2022-07-25T10:14:47.108Z,79040.00
2022-07-25T10:15:47.097Z,78624.00
2022-07-25T10:16:47.185Z,78880.00
2022-07-25T10:17:47.077Z,79232.00
2022-07-25T10:18:47.070Z,78752.00
2022-07-25T10:19:51.824Z,77184.00
2022-07-25T10:20:47.048Z,75840.00
2022-07-25T10:21:47.040Z,65376.00
2022-07-25T10:22:56.348Z,51776.00
2022-07-25T10:23:47.014Z,79968.00
2022-07-25T10:24:47.010Z,75808.00
2022-07-25T10:25:49.116Z,80128.00
2022-07-25T10:26:46.992Z,79296.00
2022-07-25T10:27:46.981Z,79360.00
2022-07-25T10:28:46.967Z,78912.00
2022-07-25T10:29:46.958Z,79776.00
2022-07-25T10:30:47.002Z,78912.00
2022-07-25T10:31:50.957Z,78304.00
2022-07-25T10:32:46.931Z,79296.00
2022-07-25T10:33:46.928Z,80256.00
2022-07-25T10:34:46.945Z,78432.00
2022-07-25T10:35:46.902Z,78656.00
2022-07-25T10:36:46.899Z,80160.00
2022-07-25T10:37:49.143Z,81888.00
2022-07-25T10:38:46.878Z,81728.00
2022-07-25T10:39:46.868Z,82912.00
2022-07-25T10:40:46.866Z,82592.00
2022-07-25T10:41:46.851Z,75456.00
2022-07-25T10:42:46.845Z,75968.00
2022-07-25T10:43:48.665Z,80320.00
2022-07-25T10:44:46.823Z,71968.00
2022-07-25T10:45:46.858Z,55168.00
2022-07-25T10:46:46.801Z,70400.00
2022-07-25T10:47:46.794Z,63552.00
2022-07-25T10:48:46.815Z,56384.00
2022-07-25T10:50:13.566Z,50624.00
2022-07-25T10:50:55.467Z,51488.00
2022-07-25T10:52:12.651Z,66432.00
2022-07-25T10:52:50.003Z,53632.00
2022-07-25T10:53:48.210Z,61504.00
2022-07-25T10:56:05.072Z,64224.00
2022-07-25T10:56:49.951Z,74528.00
2022-07-25T10:58:15.171Z,51040.00
2022-07-25T10:58:47.386Z,47712.00
2022-07-25T10:59:47.157Z,84352.00
2022-07-25T11:00:59.655Z,79904.00
2022-07-25T11:01:46.865Z,86208.00
2022-07-25T11:02:47.539Z,80320.00
2022-07-25T11:03:46.994Z,72096.00
2022-07-25T11:04:48.271Z,70656.00
2022-07-25T11:05:47.743Z,72160.00
2022-07-25T11:06:48.059Z,73056.00
2022-07-25T11:08:11.172Z,71936.00
2022-07-25T11:08:47.105Z,78208.00
2022-07-25T11:09:47.524Z,75968.00
2022-07-25T11:10:46.601Z,70528.00
2022-07-25T11:11:46.637Z,65152.00
2022-07-25T11:12:47.312Z,64480.00
2022-07-25T11:13:47.821Z,59168.00
2022-07-25T11:14:48.178Z,29920.00
2022-07-25T11:15:46.765Z,33984.00
2022-07-25T11:16:47.866Z,80960.00
2022-07-25T11:17:46.600Z,88480.00
2022-07-25T11:18:47.934Z,86016.00
2022-07-25T11:20:46.703Z,84032.00
2022-07-25T11:21:46.588Z,73824.00
2022-07-25T11:22:47.372Z,80928.00
2022-07-25T11:23:46.639Z,80768.00
2022-07-25T11:24:46.471Z,82912.00
2022-07-25T11:25:48.615Z,82016.00
2022-07-25T11:26:47.154Z,79680.00
2022-07-25T11:27:46.427Z,78944.00
2022-07-25T11:28:46.610Z,78496.00
2022-07-25T11:29:46.778Z,72512.00
2022-07-25T11:30:47.595Z,52928.00
2022-07-25T11:31:46.437Z,41984.00
2022-07-25T11:32:46.779Z,53920.00
2022-07-25T11:33:46.385Z,47520.00
2022-07-25T11:34:48.032Z,37472.00
2022-07-25T11:35:46.333Z,42304.00
2022-07-25T11:36:47.738Z,33312.00
2022-07-25T11:37:47.060Z,30944.00
2022-07-25T11:38:47.634Z,29280.00
2022-07-25T11:39:46.360Z,29088.00
2022-07-25T11:41:48.258Z,29888.00
2022-07-25T11:42:46.263Z,30656.00
2022-07-25T11:43:46.254Z,32096.00
2022-07-25T11:44:48.035Z,35456.00
2022-07-25T11:45:46.257Z,40704.00
2022-07-25T11:46:46.218Z,41600.00
2022-07-25T11:47:46.207Z,44576.00
2022-07-25T11:48:46.289Z,43968.00
2022-07-25T11:49:46.188Z,44704.00
2022-07-25T11:50:46.174Z,44608.00
2022-07-25T11:51:46.168Z,43680.00
2022-07-25T11:52:46.152Z,45376.00
2022-07-25T11:53:46.145Z,48288.00
2022-07-25T11:54:46.126Z,50400.00
2022-07-25T11:55:46.122Z,54432.00
2022-07-25T11:56:46.110Z,56672.00
2022-07-25T11:57:46.100Z,51456.00
2022-07-25T11:58:46.089Z,54240.00
2022-07-25T11:59:46.079Z,47072.00
2022-07-25T12:00:46.075Z,45664.00
2022-07-25T12:01:46.055Z,49120.00
2022-07-25T12:02:46.147Z,48992.00
2022-07-25T12:03:46.092Z,48672.00
2022-07-25T12:04:46.019Z,45792.00
2022-07-25T12:05:46.008Z,46176.00
2022-07-25T12:06:46.005Z,48576.00
2022-07-25T12:07:45.990Z,48640.00
2022-07-25T12:08:45.983Z,48384.00
2022-07-25T12:09:45.967Z,45216.00
2022-07-25T12:10:45.959Z,46848.00
2022-07-25T12:11:45.950Z,51008.00
2022-07-25T12:12:45.940Z,52640.00
2022-07-25T12:13:45.926Z,54368.00
2022-07-25T12:14:45.914Z,51072.00